Time;durP1;ratioP1;P1;durP2;ratioP2;P2;SDS_P1;SDS_P2;PMS_P1;PMS_P2;Temp;Humidity;BMP_temperature;BMP_pressure;BME280_temperature;BME280_humidity;BME280_pressure;Samples;Min_cycle;Max_cycle;Signal;HPM_P1;HPM_P2
2021/11/26 00:01:51;;;;;;;32.45;19.58;;;;;;;;;;5029358;28;20346;-61
2021/11/26 00:04:19;;;;;;;33.50;19.30;;;;;;;;;;5029501;28;20160;-59
2021/11/26 00:06:45;;;;;;;31.38;19.95;;;;;;;;;;5029502;28;20017;-61
2021/11/26 00:09:11;;;;;;;38.30;18.92;;;;;;;;;;5029841;28;20029;-61
2021/11/26 00:11:37;;;;;;;36.53;18.58;;;;;;;;;;5053866;28;20099;-58
2021/11/26 00:16:35;;;;;;;40.78;23.17;;;;;;;;;;5052920;28;20032;-59
2021/11/26 00:19:05;;;;;;;;;;;;;;;;;;5053655;28;20423;-52
2021/11/26 00:21:33;;;;;;;38.22;20.40;;;;;;;;;;5053259;28;20335;-62
2021/11/26 00:23:59;;;;;;;38.15;19.95;;;;;;;;;;5053059;28;20021;-63
2021/11/26 00:26:27;;;;;;;35.08;18.88;;;;;;;;;;5053054;28;20021;-62
2021/11/26 00:28:58;;;;;;;34.78;19.58;;;;;;;;;;5053018;28;20032;-60
2021/11/26 00:31:24;;;;;;;35.00;18.55;;;;;;;;;;5053104;28;20032;-61
2021/11/26 00:33:57;;;;;;;38.78;20.80;;;;;;;;;;5052988;28;20469;-58
2021/11/26 00:36:23;;;;;;;35.92;20.20;;;;;;;;;;5055096;28;20051;-55
2021/11/26 00:38:52;;;;;;;35.30;19.67;;;;;;;;;;5056967;28;20021;-57
2021/11/26 00:41:18;;;;;;;36.67;19.63;;;;;;;;;;5056948;28;20024;-59
2021/11/26 00:43:44;;;;;;;33.30;18.88;;;;;;;;;;5056779;28;20045;-61
2021/11/26 00:46:11;;;;;;;32.47;18.88;;;;;;;;;;5056960;28;20032;-56
2021/11/26 00:48:41;;;;;;;34.95;19.58;;;;;;;;;;5056869;28;20017;-54
2021/11/26 00:51:07;;;;;;;34.45;19.17;;;;;;;;;;5056652;28;20100;-58
2021/11/26 00:53:33;;;;;;;34.45;20.27;;;;;;;;;;5056749;28;20021;-59
2021/11/26 00:56:00;;;;;;;38.65;19.77;;;;;;;;;;5056725;28;20029;-57
2021/11/26 00:58:26;;;;;;;36.17;20.60;;;;;;;;;;5056776;28;20028;-57
2021/11/26 01:00:52;;;;;;;40.92;22.33;;;;;;;;;;5056727;28;20035;-58
2021/11/26 01:03:18;;;;;;;36.15;19.50;;;;;;;;;;5056844;28;20046;-58
2021/11/26 01:05:44;;;;;;;34.45;19.85;;;;;;;;;;5056473;28;20025;-56
2021/11/26 01:08:10;;;;;;;36.85;20.70;;;;;;;;;;5056745;28;20024;-56
2021/11/26 01:10:36;;;;;;;34.42;19.40;;;;;;;;;;5056534;28;20025;-55
2021/11/26 01:13:03;;;;;;;37.58;19.63;;;;;;;;;;5056617;28;20029;-57
2021/11/26 01:15:30;;;;;;;33.67;19.98;;;;;;;;;;5055905;28;20045;-57
2021/11/26 01:17:56;;;;;;;34.58;19.33;;;;;;;;;;5056351;28;20060;-59
2021/11/26 01:20:23;;;;;;;33.13;19.40;;;;;;;;;;5056256;28;20466;-58
2021/11/26 01:22:50;;;;;;;36.25;20.67;;;;;;;;;;5056190;28;20036;-57
2021/11/26 01:25:16;;;;;;;36.08;19.65;;;;;;;;;;5056279;28;20396;-56
2021/11/26 01:27:45;;;;;;;38.85;20.92;;;;;;;;;;5056157;28;20092;-57
2021/11/26 01:30:15;;;;;;;36.80;20.05;;;;;;;;;;5056003;28;20028;-53
2021/11/26 01:32:42;;;;;;;31.60;19.48;;;;;;;;;;5056072;28;20493;-55
2021/11/26 01:35:08;;;;;;;29.95;19.33;;;;;;;;;;5055920;28;20057;-57
2021/11/26 01:37:37;;;;;;;36.08;18.73;;;;;;;;;;5056043;28;20090;-52
2021/11/26 01:40:05;;;;;;;29.80;17.52;;;;;;;;;;5055924;28;20017;-57
2021/11/26 01:42:31;;;;;;;32.60;17.83;;;;;;;;;;5055734;28;20048;-60
2021/11/26 01:44:57;;;;;;;33.08;18.00;;;;;;;;;;5055706;28;20032;-60
2021/11/26 01:47:23;;;;;;;32.28;19.20;;;;;;;;;;5035256;28;20433;-59
2021/11/26 01:49:49;;;;;;;33.20;19.55;;;;;;;;;;5035696;28;20051;-54
2021/11/26 01:52:15;;;;;;;33.25;19.20;;;;;;;;;;5035725;28;20067;-59
2021/11/26 01:54:41;;;;;;;32.28;18.33;;;;;;;;;;5035850;28;20068;-58
2021/11/26 01:57:10;;;;;;;32.55;18.80;;;;;;;;;;5034332;28;20445;-60
2021/11/26 01:59:36;;;;;;;32.25;18.13;;;;;;;;;;5035587;28;20048;-60
2021/11/26 02:02:02;;;;;;;25.75;15.82;;;;;;;;;;5035637;28;20031;-59
2021/11/26 02:04:28;;;;;;;30.40;17.50;;;;;;;;;;5035582;28;20068;-61
2021/11/26 02:06:57;;;;;;;31.52;17.58;;;;;;;;;;5035395;28;20025;-59
2021/11/26 02:09:25;;;;;;;29.75;17.58;;;;;;;;;;5035789;28;20041;-61
2021/11/26 02:11:51;;;;;;;32.97;18.23;;;;;;;;;;5035635;28;20049;-57
2021/11/26 02:14:17;;;;;;;29.15;15.27;;;;;;;;;;5035286;28;20056;-56
2021/11/26 02:16:47;;;;;;;32.47;17.30;;;;;;;;;;5035320;28;20038;-59
2021/11/26 02:19:14;;;;;;;29.50;17.58;;;;;;;;;;5035476;28;20028;-54
2021/11/26 02:21:43;;;;;;;28.42;16.45;;;;;;;;;;5035058;28;20121;-57
2021/11/26 02:24:10;;;;;;;28.80;16.02;;;;;;;;;;5035218;28;20070;-52
2021/11/26 02:26:36;;;;;;;32.13;18.65;;;;;;;;;;5035127;28;20033;-55
2021/11/26 02:29:07;;;;;;;28.63;17.65;;;;;;;;;;5035059;28;20026;-59
2021/11/26 02:31:33;;;;;;;32.10;17.48;;;;;;;;;;5035265;28;20478;-51
2021/11/26 02:33:59;;;;;;;29.48;16.92;;;;;;;;;;5033713;28;20029;-53
2021/11/26 02:36:26;;;;;;;30.15;17.85;;;;;;;;;;5034807;28;20030;-53
2021/11/26 02:38:52;;;;;;;26.65;16.88;;;;;;;;;;5034888;28;20029;-53
2021/11/26 02:41:21;;;;;;;29.58;16.77;;;;;;;;;;5034934;28;20034;-53
2021/11/26 02:43:47;;;;;;;27.88;15.98;;;;;;;;;;5034705;28;20040;-55
2021/11/26 02:46:13;;;;;;;30.33;17.38;;;;;;;;;;5034694;28;20030;-55
2021/11/26 02:48:39;;;;;;;29.75;17.85;;;;;;;;;;5034769;28;20025;-55
2021/11/26 02:51:05;;;;;;;30.00;17.48;;;;;;;;;;5034599;28;20036;-60
2021/11/26 02:53:34;;;;;;;30.30;17.45;;;;;;;;;;5034616;28;20047;-57
2021/11/26 02:56:00;;;;;;;32.05;17.27;;;;;;;;;;5034519;28;20022;-57
2021/11/26 02:58:26;;;;;;;30.55;16.60;;;;;;;;;;5033592;28;20401;-59
2021/11/26 03:00:54;;;;;;;30.90;16.83;;;;;;;;;;5034609;28;20095;-63
2021/11/26 03:03:20;;;;;;;26.77;16.02;;;;;;;;;;5034428;28;20104;-54
2021/11/26 03:05:46;;;;;;;30.98;16.58;;;;;;;;;;5034451;28;20036;-56
2021/11/26 03:08:12;;;;;;;26.38;16.15;;;;;;;;;;5034610;28;20026;-59
2021/11/26 03:10:39;;;;;;;28.52;15.48;;;;;;;;;;5034351;28;20022;-56
2021/11/26 03:13:09;;;;;;;24.10;16.90;;;;;;;;;;5034083;28;20025;-57
2021/11/26 03:15:37;;;;;;;30.55;16.85;;;;;;;;;;5033952;28;20042;-59
2021/11/26 03:18:04;;;;;;;28.63;17.08;;;;;;;;;;5034288;28;20108;-54
2021/11/26 03:20:30;;;;;;;29.67;16.85;;;;;;;;;;5034057;28;20458;-58
2021/11/26 03:22:56;;;;;;;34.40;18.10;;;;;;;;;;5034069;28;20491;-53
2021/11/26 03:25:23;;;;;;;36.08;18.90;;;;;;;;;;5034071;28;20489;-57
2021/11/26 03:27:49;;;;;;;28.23;16.35;;;;;;;;;;5033949;28;20033;-58
2021/11/26 03:30:18;;;;;;;26.55;17.08;;;;;;;;;;5033935;28;20021;-53
2021/11/26 03:32:45;;;;;;;35.55;15.63;;;;;;;;;;5034238;28;20021;-59
2021/11/26 03:35:14;;;;;;;33.80;17.52;;;;;;;;;;5032515;28;20017;-58
2021/11/26 03:37:40;;;;;;;31.80;16.58;;;;;;;;;;5034256;28;20087;-59
2021/11/26 03:40:07;;;;;;;31.08;17.55;;;;;;;;;;5033792;28;20386;-60
2021/11/26 03:42:34;;;;;;;27.15;16.75;;;;;;;;;;5033720;28;20056;-54
2021/11/26 03:45:02;;;;;;;24.98;15.43;;;;;;;;;;5033624;28;20029;-59
2021/11/26 03:47:28;;;;;;;31.50;16.48;;;;;;;;;;5033777;28;20029;-59
2021/11/26 03:49:57;;;;;;;29.35;16.15;;;;;;;;;;5033797;28;20034;-60
2021/11/26 03:52:23;;;;;;;29.63;16.23;;;;;;;;;;5033597;28;20383;-61
2021/11/26 03:54:49;;;;;;;28.63;15.65;;;;;;;;;;5033569;28;20075;-61
2021/11/26 03:57:15;;;;;;;26.73;15.48;;;;;;;;;;5033437;28;20065;-60
2021/11/26 03:59:45;;;;;;;24.80;15.55;;;;;;;;;;5033700;28;20384;-63
2021/11/26 04:02:11;;;;;;;25.27;15.23;;;;;;;;;;5033450;28;20025;-62
2021/11/26 04:04:40;;;;;;;22.70;15.45;;;;;;;;;;5033534;28;20022;-56
2021/11/26 04:07:06;;;;;;;27.35;15.27;;;;;;;;;;5033321;28;20048;-61
2021/11/26 04:09:32;;;;;;;28.25;14.95;;;;;;;;;;5033307;28;20080;-54
2021/11/26 04:11:59;;;;;;;24.13;14.48;;;;;;;;;;5033315;28;20033;-53
2021/11/26 04:14:25;;;;;;;27.30;16.13;;;;;;;;;;5033244;28;20050;-54
2021/11/26 04:16:54;;;;;;;26.85;15.32;;;;;;;;;;5033250;28;20031;-54
2021/11/26 04:19:20;;;;;;;27.42;16.27;;;;;;;;;;5033279;28;20033;-59
2021/11/26 04:21:46;;;;;;;28.02;15.30;;;;;;;;;;5033744;28;20029;-55
2021/11/26 04:24:13;;;;;;;23.08;14.82;;;;;;;;;;5033660;28;20025;-60
2021/11/26 04:26:39;;;;;;;26.55;15.20;;;;;;;;;;5033438;28;20061;-53
2021/11/26 04:29:05;;;;;;;23.83;14.82;;;;;;;;;;5033522;28;20412;-59
2021/11/26 04:31:31;;;;;;;30.60;14.73;;;;;;;;;;5033342;28;20021;-55
2021/11/26 04:33:57;;;;;;;25.08;14.93;;;;;;;;;;5033373;28;20029;-60
2021/11/26 04:36:23;;;;;;;24.23;15.32;;;;;;;;;;5033027;28;20375;-60
2021/11/26 04:38:50;;;;;;;27.20;15.82;;;;;;;;;;5033082;28;20030;-58
2021/11/26 04:41:16;;;;;;;25.70;16.00;;;;;;;;;;5032995;28;20087;-62
2021/11/26 04:43:42;;;;;;;24.77;15.02;;;;;;;;;;5032867;28;20030;-62
2021/11/26 04:46:08;;;;;;;28.20;15.07;;;;;;;;;;5033051;28;20076;-59
2021/11/26 04:48:37;;;;;;;28.98;16.73;;;;;;;;;;5032973;28;20024;-60
2021/11/26 04:51:03;;;;;;;29.13;16.25;;;;;;;;;;5032833;28;20504;-60
2021/11/26 04:53:29;;;;;;;24.52;15.05;;;;;;;;;;5031566;28;20120;-63
2021/11/26 04:55:55;;;;;;;28.15;15.70;;;;;;;;;;5032794;28;20017;-65
2021/11/26 04:58:21;;;;;;;24.38;15.07;;;;;;;;;;5032634;28;20104;-59
2021/11/26 05:00:47;;;;;;;28.15;16.80;;;;;;;;;;5032786;28;20026;-55
2021/11/26 05:03:13;;;;;;;31.48;15.90;;;;;;;;;;5032781;28;20542;-60
2021/11/26 05:05:39;;;;;;;25.27;14.73;;;;;;;;;;5032646;28;20037;-54
2021/11/26 05:08:06;;;;;;;34.58;15.60;;;;;;;;;;5032745;28;20024;-54
2021/11/26 05:10:32;;;;;;;31.05;15.15;;;;;;;;;;5032645;28;20034;-51
2021/11/26 05:12:59;;;;;;;30.20;16.90;;;;;;;;;;5032857;28;20083;-54
2021/11/26 05:15:26;;;;;;;30.65;15.00;;;;;;;;;;5032412;28;20057;-57
2021/11/26 05:17:59;;;;;;;28.98;15.80;;;;;;;;;;5032590;28;20061;-60
2021/11/26 05:20:26;;;;;;;29.45;16.90;;;;;;;;;;5032675;28;20071;-55
2021/11/26 05:22:52;;;;;;;29.42;16.13;;;;;;;;;;5035271;28;20025;-59
2021/11/26 05:25:19;;;;;;;28.38;16.25;;;;;;;;;;5036185;28;20025;-61
2021/11/26 05:27:46;;;;;;;26.83;15.43;;;;;;;;;;5036239;28;20030;-52
2021/11/26 05:30:12;;;;;;;27.25;14.55;;;;;;;;;;5036299;28;20036;-50
2021/11/26 05:32:39;;;;;;;29.33;14.98;;;;;;;;;;5036098;28;20080;-53
2021/11/26 05:35:06;;;;;;;26.15;14.52;;;;;;;;;;5036169;28;20022;-60
2021/11/26 05:37:32;;;;;;;24.17;14.93;;;;;;;;;;5035446;28;20486;-52
2021/11/26 05:40:01;;;;;;;26.73;15.15;;;;;;;;;;5035370;28;20068;-53
2021/11/26 05:42:27;;;;;;;24.92;15.18;;;;;;;;;;5036060;28;20025;-53
2021/11/26 05:44:55;;;;;;;31.45;14.23;;;;;;;;;;5035925;28;20060;-57
2021/11/26 05:47:22;;;;;;;25.40;14.45;;;;;;;;;;5036080;28;20033;-55
2021/11/26 05:49:48;;;;;;;36.67;16.95;;;;;;;;;;5035893;28;20020;-54
2021/11/26 05:52:14;;;;;;;34.90;18.15;;;;;;;;;;5035677;28;20029;-59
2021/11/26 05:54:40;;;;;;;44.05;18.08;;;;;;;;;;5035704;28;20387;-59
2021/11/26 05:57:06;;;;;;;26.88;14.93;;;;;;;;;;5035593;28;20120;-60
2021/11/26 05:59:33;;;;;;;25.98;15.35;;;;;;;;;;5035662;28;20025;-58
2021/11/26 06:01:59;;;;;;;36.03;18.65;;;;;;;;;;5035549;28;20067;-56
2021/11/26 06:04:31;;;;;;;34.60;18.45;;;;;;;;;;5035665;28;20021;-62
2021/11/26 06:07:00;;;;;;;26.77;15.82;;;;;;;;;;5035609;28;20021;-62
2021/11/26 06:09:26;;;;;;;28.25;16.85;;;;;;;;;;5036056;28;20059;-54
2021/11/26 06:11:52;;;;;;;26.45;16.38;;;;;;;;;;5035505;28;20112;-51
2021/11/26 06:14:19;;;;;;;22.63;13.93;;;;;;;;;;5035103;28;20053;-54
2021/11/26 06:16:45;;;;;;;24.13;14.07;;;;;;;;;;5035299;28;20085;-53
2021/11/26 06:19:11;;;;;;;30.70;14.85;;;;;;;;;;5035342;28;20097;-56
2021/11/26 06:21:37;;;;;;;22.20;13.45;;;;;;;;;;5035505;28;20167;-53
2021/11/26 06:24:03;;;;;;;28.70;14.68;;;;;;;;;;5035054;28;20028;-53
2021/11/26 06:26:30;;;;;;;24.25;14.57;;;;;;;;;;5035097;28;20100;-53
2021/11/26 06:28:56;;;;;;;23.02;13.75;;;;;;;;;;5035316;28;20071;-53
2021/11/26 06:31:24;;;;;;;24.27;14.63;;;;;;;;;;5034928;28;20021;-53
2021/11/26 06:33:50;;;;;;;22.80;14.02;;;;;;;;;;5034952;28;20018;-53
2021/11/26 06:36:17;;;;;;;23.42;13.80;;;;;;;;;;5033432;28;20078;-52
2021/11/26 06:38:43;;;;;;;27.23;15.45;;;;;;;;;;5034827;28;20462;-53
2021/11/26 06:41:11;;;;;;;28.42;16.65;;;;;;;;;;5034724;28;20100;-54
2021/11/26 06:43:37;;;;;;;25.23;13.65;;;;;;;;;;5034836;28;20485;-53
2021/11/26 06:46:06;;;;;;;18.85;11.52;;;;;;;;;;5034695;28;20018;-54
2021/11/26 06:48:32;;;;;;;21.80;12.45;;;;;;;;;;5034871;28;20029;-56
2021/11/26 06:50:58;;;;;;;23.15;12.80;;;;;;;;;;5034924;28;20075;-55
2021/11/26 06:53:26;;;;;;;23.17;11.88;;;;;;;;;;5034717;28;20025;-54
2021/11/26 06:55:52;;;;;;;25.98;10.48;;;;;;;;;;5034569;28;20512;-54
2021/11/26 06:58:21;;;;;;;22.80;13.48;;;;;;;;;;5034503;28;20034;-54
2021/11/26 07:00:47;;;;;;;20.13;11.85;;;;;;;;;;5034425;28;20018;-57
2021/11/26 07:03:13;;;;;;;20.40;12.50;;;;;;;;;;5034489;28;20030;-53
2021/11/26 07:05:39;;;;;;;23.20;13.52;;;;;;;;;;5034545;28;20021;-53
2021/11/26 07:08:05;;;;;;;25.08;14.32;;;;;;;;;;5034764;28;20100;-54
2021/11/26 07:10:31;;;;;;;27.92;15.25;;;;;;;;;;5034070;28;20036;-52
2021/11/26 07:12:57;;;;;;;23.70;14.80;;;;;;;;;;5034078;28;20026;-53
2021/11/26 07:15:24;;;;;;;22.88;14.05;;;;;;;;;;5033925;28;20128;-52
2021/11/26 07:17:50;;;;;;;21.08;10.70;;;;;;;;;;5034238;28;20033;-53
2021/11/26 07:20:16;;;;;;;19.52;12.90;;;;;;;;;;5034368;28;20022;-53
2021/11/26 07:22:42;;;;;;;21.20;12.55;;;;;;;;;;5033898;28;20159;-51
2021/11/26 07:25:11;;;;;;;23.42;14.00;;;;;;;;;;5033925;28;20017;-55
2021/11/26 07:27:37;;;;;;;23.67;11.38;;;;;;;;;;5034099;28;20101;-53
2021/11/26 07:30:05;;;;;;;24.25;12.23;;;;;;;;;;5034154;28;20466;-54
2021/11/26 07:32:31;;;;;;;23.40;13.35;;;;;;;;;;5034005;28;20029;-54
2021/11/26 07:34:57;;;;;;;18.60;10.05;;;;;;;;;;5033984;28;20026;-54
2021/11/26 07:37:25;;;;;;;21.30;11.32;;;;;;;;;;5033725;28;20056;-59
2021/11/26 07:39:52;;;;;;;22.38;12.48;;;;;;;;;;5033591;28;20033;-55
2021/11/26 07:42:18;;;;;;;24.55;12.60;;;;;;;;;;5033701;28;20030;-55
2021/11/26 07:44:44;;;;;;;19.23;11.80;;;;;;;;;;5033228;28;20029;-53
2021/11/26 07:47:13;;;;;;;19.92;10.55;;;;;;;;;;5033833;28;20022;-53
2021/11/26 07:49:40;;;;;;;21.52;12.70;;;;;;;;;;5033711;28;20078;-55
2021/11/26 07:52:08;;;;;;;27.55;15.55;;;;;;;;;;5033556;28;20025;-54
2021/11/26 07:54:34;;;;;;;20.63;10.90;;;;;;;;;;5033539;28;20029;-55
2021/11/26 07:57:01;;;;;;;18.98;11.05;;;;;;;;;;5033702;28;20489;-53
2021/11/26 07:59:27;;;;;;;17.70;10.77;;;;;;;;;;5033862;28;20033;-54
2021/11/26 08:01:53;;;;;;;17.40;11.70;;;;;;;;;;5033450;28;20096;-54
2021/11/26 08:04:22;;;;;;;19.88;11.43;;;;;;;;;;5033453;28;20148;-54
2021/11/26 08:06:48;;;;;;;19.77;12.10;;;;;;;;;;5033399;28;20022;-54
2021/11/26 08:09:19;;;;;;;24.25;11.57;;;;;;;;;;5033270;28;20085;-53
2021/11/26 08:11:46;;;;;;;21.73;11.68;;;;;;;;;;5033451;28;20022;-54
2021/11/26 08:14:12;;;;;;;23.05;11.35;;;;;;;;;;5033200;28;20053;-51
2021/11/26 08:16:38;;;;;;;20.17;11.43;;;;;;;;;;5033131;28;20035;-54
2021/11/26 08:19:05;;;;;;;20.73;12.48;;;;;;;;;;5033456;28;20022;-54
2021/11/26 08:21:32;;;;;;;19.33;12.38;;;;;;;;;;5033153;28;20022;-54
2021/11/26 08:23:59;;;;;;;19.30;11.32;;;;;;;;;;5033216;28;20060;-53
2021/11/26 08:26:25;;;;;;;19.08;10.43;;;;;;;;;;5033163;28;20470;-53
2021/11/26 08:28:51;;;;;;;22.80;11.50;;;;;;;;;;5033251;28;20044;-55
2021/11/26 08:31:17;;;;;;;21.27;12.13;;;;;;;;;;5033190;28;20025;-55
2021/11/26 08:33:44;;;;;;;21.92;11.05;;;;;;;;;;5033118;28;20394;-55
2021/11/26 08:36:10;;;;;;;18.60;10.27;;;;;;;;;;5033184;28;20043;-55
2021/11/26 08:38:36;;;;;;;20.88;12.30;;;;;;;;;;5032854;28;20041;-53
2021/11/26 08:41:04;;;;;;;19.00;11.13;;;;;;;;;;5033144;28;20052;-54
2021/11/26 08:43:30;;;;;;;19.42;11.05;;;;;;;;;;5033232;28;20029;-54
2021/11/26 08:46:05;;;;;;;20.33;11.65;;;;;;;;;;5033354;28;20025;-55
2021/11/26 08:48:31;;;;;;;19.80;10.68;;;;;;;;;;5033338;28;20021;-53
2021/11/26 08:50:59;;;;;;;20.55;12.68;;;;;;;;;;5032885;28;20025;-54
2021/11/26 08:53:29;;;;;;;17.85;12.05;;;;;;;;;;5032797;28;20036;-53
2021/11/26 08:55:55;;;;;;;16.92;11.50;;;;;;;;;;5033212;28;20486;-54
2021/11/26 08:58:26;;;;;;;19.17;10.55;;;;;;;;;;5036690;28;20033;-53
2021/11/26 09:00:52;;;;;;;23.02;9.63;;;;;;;;;;5036849;28;20104;-52
2021/11/26 09:03:19;;;;;;;25.02;11.98;;;;;;;;;;5036648;28;20506;-53
2021/11/26 09:05:45;;;;;;;26.52;12.15;;;;;;;;;;5036686;28;20033;-51
2021/11/26 09:08:15;;;;;;;20.67;11.70;;;;;;;;;;5036409;28;20021;-53
2021/11/26 09:10:42;;;;;;;22.30;12.75;;;;;;;;;;5035443;28;20022;-53
2021/11/26 09:13:08;;;;;;;20.88;12.65;;;;;;;;;;5036289;28;20025;-53
2021/11/26 09:15:38;;;;;;;25.10;12.60;;;;;;;;;;5036273;28;20076;-53
2021/11/26 09:18:04;;;;;;;31.20;15.68;;;;;;;;;;5036672;28;20397;-54
2021/11/26 09:20:32;;;;;;;21.58;12.18;;;;;;;;;;5036439;28;20026;-52
2021/11/26 09:22:58;;;;;;;26.88;14.52;;;;;;;;;;5036316;28;20025;-54
2021/11/26 09:25:24;;;;;;;26.88;13.15;;;;;;;;;;5036345;28;20553;-51
2021/11/26 09:27:50;;;;;;;26.60;14.25;;;;;;;;;;5036336;28;20079;-53
2021/11/26 09:30:18;;;;;;;27.05;13.95;;;;;;;;;;5036336;28;20032;-59
2021/11/26 09:32:44;;;;;;;29.25;16.27;;;;;;;;;;5036507;28;20026;-57
2021/11/26 09:35:11;;;;;;;37.42;16.15;;;;;;;;;;5036280;28;20030;-55
2021/11/26 09:37:37;;;;;;;28.40;14.82;;;;;;;;;;5036172;28;20485;-55
2021/11/26 09:40:05;;;;;;;30.83;17.58;;;;;;;;;;5036153;28;20028;-57
2021/11/26 09:42:31;;;;;;;34.83;17.42;;;;;;;;;;5036207;28;20022;-57
2021/11/26 09:45:00;;;;;;;27.85;16.20;;;;;;;;;;5036114;28;20026;-57
2021/11/26 09:47:26;;;;;;;29.95;17.85;;;;;;;;;;5035994;28;20031;-56
2021/11/26 09:49:52;;;;;;;27.90;16.85;;;;;;;;;;5036192;28;20030;-56
2021/11/26 09:52:19;;;;;;;31.45;16.27;;;;;;;;;;5035800;28;20029;-55
2021/11/26 09:54:48;;;;;;;28.95;17.42;;;;;;;;;;5035893;28;20029;-57
2021/11/26 09:57:17;;;;;;;26.45;15.18;;;;;;;;;;5035713;28;20497;-58
2021/11/26 09:59:45;;;;;;;26.55;15.00;;;;;;;;;;5035880;28;20155;-56
2021/11/26 10:02:19;;;;;;;32.10;17.20;;;;;;;;;;5035977;28;20444;-56
2021/11/26 10:04:58;;;;;;;51.42;24.10;;;;;;;;;;5035748;28;20079;-57
2021/11/26 10:07:24;;;;;;;34.30;18.27;;;;;;;;;;5035384;28;20053;-55
2021/11/26 10:09:50;;;;;;;27.17;16.02;;;;;;;;;;5035802;28;20013;-58
2021/11/26 10:12:18;;;;;;;26.77;14.52;;;;;;;;;;5035652;28;20377;-56
2021/11/26 10:14:45;;;;;;;21.58;13.50;;;;;;;;;;5035373;28;20049;-56
2021/11/26 10:17:24;;;;;;;21.35;13.45;;;;;;;;;;5035560;28;20025;-54
2021/11/26 10:19:51;;;;;;;24.70;14.32;;;;;;;;;;5035545;28;20319;-58
2021/11/26 10:22:21;;;;;;;21.85;12.73;;;;;;;;;;5035451;28;20079;-57
2021/11/26 10:24:57;;;;;;;22.75;13.05;;;;;;;;;;5035368;28;20025;-60
2021/11/26 10:27:38;;;;;;;27.25;13.93;;;;;;;;;;5035576;28;20060;-57
2021/11/26 10:30:24;;;;;;;23.77;13.35;;;;;;;;;;5035236;28;20028;-57
2021/11/26 10:32:57;;;;;;;22.42;11.88;;;;;;;;;;5035394;28;20048;-56
2021/11/26 10:35:27;;;;;;;25.45;14.32;;;;;;;;;;5035433;28;20034;-59
2021/11/26 10:37:57;;;;;;;28.75;15.70;;;;;;;;;;5034961;28;20030;-60
2021/11/26 10:40:26;;;;;;;23.25;14.60;;;;;;;;;;5035200;28;20489;-58
2021/11/26 10:42:52;;;;;;;23.58;13.98;;;;;;;;;;5035195;28;20466;-57
2021/11/26 10:45:30;;;;;;;31.55;16.60;;;;;;;;;;5035071;28;20116;-56
2021/11/26 10:51:44;;;;;;;31.55;17.20;;;;;;;;;;5012996;28;20120;-56
2021/11/26 10:59:11;;;;;;;33.97;17.45;;;;;;;;;;5012705;28;20053;-57
2021/11/26 11:01:46;;;;;;;34.55;18.10;;;;;;;;;;5012546;28;20030;-56
2021/11/26 11:04:17;;;;;;;32.03;17.10;;;;;;;;;;5012864;28;20022;-57
2021/11/26 11:06:43;;;;;;;31.42;18.20;;;;;;;;;;5012590;28;20033;-54
2021/11/26 11:09:11;;;;;;;27.50;15.57;;;;;;;;;;5012549;28;20554;-60
2021/11/26 11:11:38;;;;;;;31.70;19.08;;;;;;;;;;5012636;28;20025;-60
2021/11/26 11:14:13;;;;;;;31.77;17.35;;;;;;;;;;5012215;28;20387;-57
2021/11/26 11:16:49;;;;;;;34.35;18.60;;;;;;;;;;5012473;28;20061;-59
2021/11/26 11:19:16;;;;;;;30.90;18.00;;;;;;;;;;5011593;28;20408;-59
2021/11/26 11:21:46;;;;;;;30.58;19.52;;;;;;;;;;5012323;28;20033;-51
2021/11/26 11:24:17;;;;;;;29.38;17.63;;;;;;;;;;5012308;28;20397;-57
2021/11/26 11:26:48;;;;;;;31.15;17.73;;;;;;;;;;5017067;28;20026;-57
2021/11/26 11:29:17;;;;;;;31.35;15.77;;;;;;;;;;5033995;28;20021;-55
2021/11/26 11:31:44;;;;;;;31.98;18.30;;;;;;;;;;5033825;28;20028;-57
2021/11/26 11:34:13;;;;;;;30.55;18.23;;;;;;;;;;5034348;28;20021;-56
2021/11/26 11:36:40;;;;;;;35.90;20.25;;;;;;;;;;5033812;28;20414;-57
2021/11/26 11:39:07;;;;;;;32.45;18.35;;;;;;;;;;5033631;28;20072;-56
2021/11/26 11:41:47;;;;;;;33.58;18.35;;;;;;;;;;5033640;28;20385;-55
2021/11/26 11:44:27;;;;;;;24.15;15.50;;;;;;;;;;5033736;28;20034;-56
2021/11/26 11:46:53;;;;;;;30.70;17.85;;;;;;;;;;5033634;28;20071;-56
2021/11/26 11:49:26;;;;;;;33.95;18.33;;;;;;;;;;5033826;28;20034;-56
2021/11/26 11:51:56;;;;;;;28.58;15.95;;;;;;;;;;5033474;28;20033;-56
2021/11/26 11:54:25;;;;;;;36.25;18.20;;;;;;;;;;5033462;28;20028;-57
2021/11/26 11:56:52;;;;;;;36.38;18.15;;;;;;;;;;5033476;28;20040;-55
2021/11/26 11:59:30;;;;;;;47.88;21.15;;;;;;;;;;5033251;28;20034;-56
2021/11/26 12:02:00;;;;;;;40.33;19.92;;;;;;;;;;5033473;28;20022;-57
2021/11/26 12:04:26;;;;;;;33.28;18.60;;;;;;;;;;5033283;28;20025;-55
2021/11/26 12:06:54;;;;;;;33.45;18.35;;;;;;;;;;5033605;28;20083;-51
2021/11/26 12:09:30;;;;;;;47.28;24.70;;;;;;;;;;5033368;28;20018;-55
2021/11/26 12:12:14;;;;;;;29.13;15.73;;;;;;;;;;5033532;28;20025;-59
2021/11/26 12:14:47;;;;;;;30.08;18.35;;;;;;;;;;5033226;28;20053;-59
2021/11/26 12:17:23;;;;;;;32.85;19.40;;;;;;;;;;5033269;28;20363;-55
2021/11/26 12:19:58;;;;;;;38.33;20.40;;;;;;;;;;5033254;28;20032;-57
2021/11/26 12:22:32;;;;;;;35.58;18.67;;;;;;;;;;5033243;28;20018;-55
2021/11/26 12:24:58;;;;;;;34.83;18.70;;;;;;;;;;5033314;28;20033;-61
2021/11/26 12:27:37;;;;;;;33.70;19.45;;;;;;;;;;5033224;28;20028;-59
2021/11/26 12:30:06;;;;;;;31.45;17.73;;;;;;;;;;5033273;28;20481;-57
2021/11/26 12:32:32;;;;;;;33.38;19.27;;;;;;;;;;5037708;28;20068;-56
2021/11/26 12:35:02;;;;;;;31.13;18.95;;;;;;;;;;5037554;28;20025;-58
2021/11/26 12:37:30;;;;;;;32.30;16.85;;;;;;;;;;5037022;28;20045;-55
2021/11/26 12:39:57;;;;;;;35.00;19.08;;;;;;;;;;5037289;28;20021;-56
2021/11/26 12:42:24;;;;;;;38.40;20.42;;;;;;;;;;5037082;28;20496;-54
2021/11/26 12:44:56;;;;;;;39.25;20.08;;;;;;;;;;5037458;28;20095;-52
2021/11/26 12:47:23;;;;;;;43.60;22.20;;;;;;;;;;5037620;28;20399;-58
2021/11/26 12:52:25;;;;;;;36.20;19.70;;;;;;;;;;5036760;28;20108;-54
2021/11/26 12:54:57;;;;;;;39.20;21.70;;;;;;;;;;5036733;28;20104;-58
2021/11/26 12:57:23;;;;;;;36.25;20.55;;;;;;;;;;5036799;28;20026;-58
2021/11/26 13:00:01;;;;;;;38.72;20.13;;;;;;;;;;5037014;28;20045;-55
2021/11/26 13:02:29;;;;;;;39.88;22.08;;;;;;;;;;5036657;28;20562;-56
2021/11/26 13:04:57;;;;;;;38.00;22.20;;;;;;;;;;5037170;28;20110;-53
2021/11/26 13:07:25;;;;;;;40.70;22.17;;;;;;;;;;5036501;28;20061;-55
2021/11/26 13:09:53;;;;;;;39.42;21.05;;;;;;;;;;5036742;28;20370;-55
2021/11/26 13:12:23;;;;;;;38.03;22.20;;;;;;;;;;5036552;28;20529;-57
2021/11/26 13:14:54;;;;;;;33.83;20.45;;;;;;;;;;5036420;28;20081;-56
2021/11/26 13:17:21;;;;;;;32.40;19.80;;;;;;;;;;5036675;28;20021;-54
2021/11/26 13:19:58;;;;;;;33.42;20.02;;;;;;;;;;5036318;28;20212;-57
2021/11/26 13:22:24;;;;;;;36.05;21.52;;;;;;;;;;5036097;28;20108;-54
2021/11/26 13:24:51;;;;;;;38.50;22.13;;;;;;;;;;5036283;28;20025;-57
2021/11/26 13:27:17;;;;;;;38.80;23.38;;;;;;;;;;5036544;28;20029;-57
2021/11/26 13:29:49;;;;;;;37.85;22.02;;;;;;;;;;5036377;28;20037;-55
2021/11/26 13:32:15;;;;;;;37.95;21.30;;;;;;;;;;5036270;28;20025;-59
2021/11/26 13:34:41;;;;;;;37.58;22.25;;;;;;;;;;5036034;28;20072;-55
2021/11/26 13:37:12;;;;;;;37.45;21.90;;;;;;;;;;5036010;28;20532;-55
2021/11/26 13:39:39;;;;;;;38.80;23.15;;;;;;;;;;5035989;28;20064;-56
2021/11/26 13:42:09;;;;;;;29.30;17.27;;;;;;;;;;5035164;28;20021;-55
2021/11/26 13:44:35;;;;;;;34.58;20.95;;;;;;;;;;5035015;28;20034;-57
2021/11/26 13:47:03;;;;;;;35.38;20.60;;;;;;;;;;5035256;28;20017;-56
2021/11/26 13:49:34;;;;;;;30.02;18.98;;;;;;;;;;5035266;28;20037;-55
2021/11/26 13:52:03;;;;;;;40.33;22.67;;;;;;;;;;5033383;28;20025;-56
2021/11/26 13:54:31;;;;;;;35.67;22.30;;;;;;;;;;5035219;28;20087;-54
2021/11/26 13:57:02;;;;;;;40.20;23.55;;;;;;;;;;5032894;28;20013;-55
2021/11/26 13:59:31;;;;;;;37.97;22.70;;;;;;;;;;5035049;28;20060;-54
2021/11/26 14:02:09;;;;;;;36.53;23.02;;;;;;;;;;5032780;28;20056;-56
2021/11/26 14:04:35;;;;;;;29.08;18.08;;;;;;;;;;5035166;28;20028;-56
2021/11/26 14:07:12;;;;;;;27.75;18.08;;;;;;;;;;5035360;28;20028;-54
2021/11/26 14:09:42;;;;;;;41.95;23.90;;;;;;;;;;5035242;28;20474;-58
2021/11/26 14:12:14;;;;;;;50.13;27.80;;;;;;;;;;5035396;28;20041;-58
2021/11/26 14:14:41;;;;;;;65.28;34.90;;;;;;;;;;5035097;28;20056;-58
2021/11/26 14:17:09;;;;;;;47.03;25.75;;;;;;;;;;5035218;28;20036;-58
2021/11/26 14:19:42;;;;;;;31.05;18.05;;;;;;;;;;5034931;28;20037;-58
2021/11/26 14:22:09;;;;;;;47.03;27.48;;;;;;;;;;5034463;28;20071;-56
2021/11/26 14:24:37;;;;;;;29.38;17.52;;;;;;;;;;5034309;28;20104;-57
2021/11/26 14:27:06;;;;;;;40.88;23.83;;;;;;;;;;5034573;28;20029;-59
2021/11/26 14:29:37;;;;;;;54.38;30.27;;;;;;;;;;5028057;28;20029;-52
2021/11/26 14:32:12;;;;;;;53.47;26.13;;;;;;;;;;5005824;28;20044;-55
2021/11/26 14:34:39;;;;;;;63.60;31.90;;;;;;;;;;5005688;28;20026;-53
2021/11/26 14:37:05;;;;;;;51.35;29.05;;;;;;;;;;5004819;28;20030;-56